Latest Weather Observations for Wynyard

IDT60801

Issued at 11:31 pm EST Monday 27 April 2015 (issued every 30 minutes, with the page automatically refreshed every 10 minutes)

About weather observations | Map of weather stations | Latest weather observations for TAS | Other Formats
Station Details ID: 091107 Name: WYNYARD AIRPORT Lat: -41.00 Lon: 145.73 Height: 12.0 m
Data from the previous 72 hours. | See also: Recent months at Wynyard
Date/Time
EST
Temp
°C
App
Temp
°C
Dew
Point
Rel
Hum
%
Delta-T
°C
Wind Press
QNH
hPa
Press
MSL
hPa
Rain
since 9 am
mm
Dir
 
Spd
km/h
Gust
km/h
Spd
kts
Gust
kts
27/11:30pm 9.0 6.2 5.0 76 1.8 SW 9 19 5 10 1024.2 1024.2 0.0
27/11:00pm 9.7 6.2 5.5 75 1.9 SSW 13 20 7 11 1024.2 1024.2 0.0
27/10:30pm 9.7 6.3 6.1 78 1.7 S 13 26 7 14 1024.1 1024.1 0.0
27/10:00pm 8.3 5.1 5.2 81 1.4 W 11 15 6 8 1023.9 1023.9 0.0
27/09:30pm 9.3 5.9 5.7 78 1.6 W 13 17 7 9 1023.5 1023.5 0.0
27/09:00pm 10.1 6.3 5.9 75 1.9 S 15 24 8 13 1023.3 1023.3 0.0
27/08:30pm 10.2 6.1 6.2 76 1.9 SSW 17 22 9 12 1022.8 1022.8 0.0
27/07:30pm 10.6 6.2 6.4 75 2.0 SSW 19 28 10 15 1022.3 1022.3 0.0
27/07:00pm 10.9 5.8 6.1 72 2.2 SSW 22 35 12 19 1022.1 1022.1 0.0
27/06:30pm 11.5 6.5 6.4 71 2.4 SSW 22 33 12 18 1021.7 1021.7 0.0
27/06:00pm 11.3 5.8 5.8 69 2.5 SW 24 33 13 18 1021.3 1021.3 0.0
27/05:30pm 11.9 6.0 6.0 67 2.8 SW 26 35 14 19 1020.9 1020.9 0.0
27/05:00pm 12.9 7.8 5.8 62 3.3 SSW 22 30 12 16 1020.6 1020.6 0.0
27/04:30pm 14.0 9.5 5.9 58 3.8 SSW 19 24 10 13 1020.2 1020.2 0.0
27/04:00pm 14.5 9.4 6.1 57 4.0 SSW 22 37 12 20 1020.0 1020.0 0.0
27/03:30pm 14.9 10.2 6.0 55 4.3 S 20 35 11 19 1019.8 1019.8 0.0
27/03:00pm 15.4 10.0 6.4 55 4.4 S 24 35 13 19 1019.5 1019.5 0.0
27/02:30pm 15.7 9.6 6.4 54 4.5 SSW 28 41 15 22 1019.4 1019.4 0.0
27/02:00pm 16.2 10.5 6.9 54 4.6 SSW 26 43 14 23 1019.2 1019.2 0.0
27/01:30pm 15.5 10.1 6.5 55 4.4 SW 24 35 13 19 1019.1 1019.1 0.0
27/01:00pm 15.5 10.6 7.0 57 4.2 SSW 22 35 12 19 1019.2 1019.2 0.0
27/12:30pm 15.3 9.6 6.6 56 4.2 SW 26 35 14 19 1019.3 1019.3 0.0
27/12:00pm 14.5 8.3 6.1 57 4.0 SSW 28 41 15 22 1019.6 1019.6 0.0
27/11:30am 13.9 9.3 6.5 61 3.6 S 20 32 11 17 1019.8 1019.8 0.0
27/11:00am 13.9 9.6 7.0 63 3.3 SSW 19 28 10 15 1019.8 1019.8 0.0
27/10:30am 13.8 9.7 7.8 67 3.0 SSW 19 28 10 15 1019.8 1019.8 0.0
27/10:00am 12.4 8.4 6.7 68 2.7 SW 17 24 9 13 1019.6 1019.6 0.0
27/09:30am 12.1 8.0 8.0 76 2.0 SSW 19 30 10 16 1019.6 1019.6 0.0
27/09:00am 11.0 7.7 7.9 81 1.5 WNW 15 17 8 9 1019.4 1019.4 0.2
27/08:30am 8.0 5.5 8.0 100 0.0 WNW 11 13 6 7 1019.5 1019.5 0.2
27/08:00am 5.0 2.5 4.9 99 0.0 WSW 7 9 4 5 1019.3 1019.3 0.2
27/07:30am 2.5 -0.4 2.4 99 0.0 WSW 7 9 4 5 1019.0 1019.0 0.2
27/07:00am 0.9 -2.3 0.8 99 0.0 WSW 7 9 4 5 1018.5 1018.5 0.2
27/06:30am 1.1 -0.7 1.0 99 0.0 CALM 0 0 0 0 1018.5 1018.5 0.2
27/06:00am 0.9 -2.1 0.8 99 0.0 SW 6 7 3 4 1018.2 1018.2 0.2
27/05:30am 1.1 -1.1 1.0 99 0.0 S 2 7 1 4 1018.2 1018.2 0.2
27/05:00am 2.1 -0.9 2.0 99 0.0 WSW 7 9 4 5 1017.9 1017.9 0.2
27/04:30am 2.3 0.3 2.2 99 0.0 S 2 6 1 3 1017.7 1017.7 0.2
27/04:00am 3.7 1.2 3.6 99 0.0 SSW 6 7 3 4 1017.5 1017.5 0.2
27/03:30am 2.5 -0.4 2.4 99 0.0 WSW 7 11 4 6 1017.4 1017.4 0.2
27/03:00am 3.8 2.4 3.7 99 0.0 CALM 0 0 0 0 1017.4 1017.4 0.2
27/02:30am 3.1 1.6 3.0 99 0.0 CALM 0 0 0 0 1017.3 1017.3 0.2
27/02:00am 3.5 0.9 3.4 99 0.0 SSW 6 7 3 4 1017.4 1017.4 0.2
27/01:30am 4.1 1.5 4.0 99 0.0 NW 7 9 4 5 1017.2 1017.2 0.2
27/01:00am 4.3 2.3 4.2 99 0.0 WSW 4 6 2 3 1017.4 1017.4 0.2
27/12:30am 5.7 4.7 5.6 99 0.0 CALM 0 6 0 3 1017.3 1017.3 0.2
27/12:00am 6.1 3.1 6.0 99 0.0 WSW 11 13 6 7 1017.4 1017.4 0.2
 
Date/Time
EST
Temp
°C
App
Temp
°C
Dew
Point
Rel
Hum
%
Delta-T
°C
Wind Press
QNH
hPa
Press
MSL
hPa
Rain
since 9 am
mm
Dir
 
Spd
km/h
Gust
km/h
Spd
kts
Gust
kts
26/11:30pm 6.8 3.1 6.1 95 0.3 W 15 17 8 9 1017.2 1017.2 0.2
26/11:00pm 7.0 3.0 6.6 97 0.2 W 17 20 9 11 1017.2 1017.2 0.2
26/10:30pm 5.9 2.1 5.6 98 0.1 W 15 19 8 10 1017.1 1017.1 0.2
26/10:00pm 8.0 4.1 7.1 94 0.4 WNW 17 20 9 11 1017.0 1017.0 0.2
26/09:30pm 8.6 5.0 6.7 88 0.9 WNW 15 19 8 10 1016.8 1016.9 0.2
26/09:00pm 9.0 5.2 7.5 90 0.7 WNW 17 20 9 11 1016.7 1016.8 0.2
26/08:30pm 9.0 6.0 7.5 90 0.7 NW 13 17 7 9 1016.4 1016.5 0.2
26/08:00pm 8.5 6.2 7.4 93 0.5 WSW 9 13 5 7 1016.2 1016.3 0.2
26/07:30pm 8.7 5.7 7.5 92 0.6 WSW 13 17 7 9 1016.1 1016.2 0.2
26/07:00pm 9.7 6.0 8.1 90 0.8 WSW 17 20 9 11 1015.8 1015.9 0.2
26/06:30pm 10.0 6.3 8.1 88 0.9 W 17 22 9 12 1015.5 1015.5 0.2
26/06:00pm 10.3 6.0 7.7 84 1.2 W 20 30 11 16 1014.9 1014.9 0.2
26/05:30pm 10.9 6.6 8.0 82 1.4 W 20 24 11 13 1014.6 1014.6 0.2
26/05:00pm 12.1 7.2 7.0 71 2.4 WSW 22 30 12 16 1014.2 1014.2 0.0
26/04:30pm 13.2 8.0 7.4 68 2.8 WSW 24 35 13 19 1014.1 1014.1 0.0
26/04:00pm 13.6 7.6 6.9 64 3.2 WSW 28 41 15 22 1013.9 1013.9 0.0
26/03:30pm 14.7 9.6 7.5 62 3.6 SSW 24 35 13 19 1013.7 1013.7 0.0
26/03:00pm 14.6 7.9 7.2 61 3.6 WSW 32 41 17 22 1013.5 1013.5 0.0
26/02:32pm 14.8 7.9 6.6 58 4.0 WSW 32 50 17 27 1013.4 1013.4 0.0
26/02:30pm 14.9 7.6 7.0 59 3.9 WSW 35 50 19 27 1013.4 1013.4 0.0
26/02:22pm 14.7 8.1 6.0 56 4.2 SW 30 48 16 26 1013.4 1013.4 0.0
26/02:00pm 14.6 9.1 5.9 56 4.2 SW 24 35 13 19 1013.4 1013.4 0.0
26/01:30pm 14.4 9.0 6.5 59 3.8 SW 24 35 13 19 1013.5 1013.5 0.0
26/01:00pm 15.1 9.4 6.9 58 4.0 WSW 26 37 14 20 1013.4 1013.4 0.0
26/12:45pm 14.5 8.3 6.1 57 4.0 SW 28 46 15 25 1013.5 1013.5 0.0
26/12:30pm 13.6 7.8 6.2 61 3.5 SW 26 37 14 20 1013.8 1013.8 0.0
26/12:00pm 14.4 9.6 7.2 62 3.5 WSW 22 37 12 20 1014.0 1014.0 0.0
26/11:30am 13.6 8.7 5.3 57 3.9 SW 20 28 11 15 1014.4 1014.4 0.0
26/11:00am 13.6 9.7 5.5 58 3.8 SW 15 28 8 15 1014.6 1014.6 0.0
26/10:30am 12.7 9.1 4.9 59 3.6 SSW 13 22 7 12 1014.6 1014.6 0.0
26/10:00am 12.5 7.6 5.2 61 3.4 SW 20 32 11 17 1014.8 1014.8 0.0
26/09:30am 11.9 7.6 5.3 64 3.0 WSW 17 24 9 13 1014.9 1014.9 0.0
26/09:00am 11.0 6.6 4.9 66 2.8 WSW 17 26 9 14 1015.0 1015.0 0.0
26/08:30am 10.6 5.8 4.5 66 2.7 SW 19 30 10 16 1014.9 1014.9 0.0
26/08:00am 9.7 4.6 4.1 68 2.5 SSW 20 33 11 18 1014.7 1014.7 0.0
26/07:30am 6.0 2.5 3.7 85 1.0 W 11 15 6 8 1014.5 1014.5 0.0
26/07:00am 6.1 2.6 3.4 83 1.1 WNW 11 13 6 7 1014.0 1014.0 0.0
26/06:30am 5.7 2.4 2.4 79 1.3 W 9 11 5 6 1013.7 1013.7 0.0
26/06:00am 7.2 2.9 3.4 77 1.6 SW 15 20 8 11 1013.5 1013.5 0.0
26/05:30am 8.1 3.5 3.6 73 1.9 SW 17 30 9 16 1013.1 1013.1 0.0
26/05:00am 8.5 3.3 3.8 72 2.0 SSW 20 30 11 16 1012.8 1012.8 0.0
26/04:30am 9.0 3.4 3.4 68 2.4 SSW 22 32 12 17 1012.7 1012.7 0.0
26/04:00am 9.3 3.7 3.5 67 2.5 SSW 22 35 12 19 1012.5 1012.5 0.0
26/03:30am 9.6 4.4 3.8 67 2.5 SSW 20 32 11 17 1012.5 1012.5 0.0
26/03:00am 9.5 4.9 3.9 68 2.5 SSW 17 30 9 16 1012.5 1012.5 0.0
26/02:30am 9.7 6.4 4.7 71 2.2 SSW 11 17 6 9 1012.7 1012.7 0.0
26/02:00am 10.0 6.8 5.0 71 2.3 SW 11 20 6 11 1012.7 1012.7 0.0
26/01:30am 10.3 7.2 5.5 72 2.2 SSW 11 20 6 11 1012.6 1012.6 0.0
26/01:00am 10.4 7.0 5.8 73 2.1 SW 13 19 7 10 1012.6 1012.6 0.0
26/12:30am 10.6 8.0 6.2 74 2.0 SW 9 17 5 9 1012.6 1012.6 0.0
26/12:00am 10.4 7.9 6.7 78 1.7 SW 9 13 5 7 1012.3 1012.3 0.0
 
Date/Time
EST
Temp
°C
App
Temp
°C
Dew
Point
Rel
Hum
%
Delta-T
°C
Wind Press
QNH
hPa
Press
MSL
hPa
Rain
since 9 am
mm
Dir
 
Spd
km/h
Gust
km/h
Spd
kts
Gust
kts
25/11:30pm 10.0 8.1 6.7 80 1.5 W 6 7 3 4 1012.1 1012.1 0.0
25/11:00pm 9.8 7.0 7.1 83 1.3 WSW 11 15 6 8 1012.1 1012.1 0.0
25/10:30pm 9.7 7.3 6.8 82 1.4 WSW 9 15 5 8 1012.0 1012.0 0.0
25/10:00pm 10.4 8.6 7.1 80 1.6 WSW 6 13 3 7 1012.0 1012.0 0.0
25/09:30pm 10.9 7.8 7.4 79 1.7 SW 13 17 7 9 1011.9 1011.9 0.0
25/09:00pm 11.1 8.9 7.8 80 1.6 WSW 9 13 5 7 1011.9 1011.9 0.0
25/08:30pm 11.0 8.4 7.9 81 1.5 SSW 11 19 6 10 1011.6 1011.6 0.0
25/08:00pm 11.1 9.3 7.8 80 1.6 SSW 7 13 4 7 1011.5 1011.5 0.0
25/07:30pm 11.7 9.9 7.8 77 1.9 S 7 13 4 7 1011.4 1011.4 0.0
25/07:00pm 12.0 9.4 7.9 76 2.0 SSW 11 17 6 9 1011.0 1011.0 0.0
25/06:30pm 13.2 9.6 8.3 72 2.4 SSW 17 22 9 12 1010.7 1010.7 0.0
25/06:00pm 12.6 10.5 9.8 83 1.4 W 11 13 6 7 1010.1 1010.1 0.0
25/05:30pm 14.4 13.4 11.0 80 1.8 W 7 9 4 5 1009.7 1009.7 0.0
25/05:00pm 15.4 14.5 11.4 77 2.2 WNW 7 11 4 6 1009.3 1009.3 0.0
25/04:30pm 15.7 14.4 11.1 74 2.5 WNW 9 11 5 6 1009.2 1009.2 0.0
25/04:00pm 15.8 14.3 10.6 71 2.8 NW 9 11 5 6 1009.1 1009.1 0.0
25/03:30pm 15.9 14.8 10.7 71 2.8 N 7 9 4 5 1009.0 1009.0 0.0
25/03:00pm 15.9 14.3 10.2 69 3.0 NNE 9 11 5 6 1008.8 1008.8 0.0
25/02:30pm 16.1 13.7 10.0 67 3.2 NE 13 15 7 8 1008.6 1008.6 0.0
25/02:00pm 17.6 14.9 10.5 63 3.8 NE 15 19 8 10 1008.5 1008.5 0.0
25/01:30pm 17.5 14.8 11.8 69 3.1 NE 17 22 9 12 1008.3 1008.3 0.0
25/01:00pm 16.9 14.1 10.1 64 3.6 ENE 15 20 8 11 1008.3 1008.3 0.0
25/12:30pm 17.0 14.6 9.9 63 3.7 ENE 13 19 7 10 1008.4 1008.4 0.0
25/12:00pm 17.0 14.7 10.4 65 3.5 ENE 13 17 7 9 1008.5 1008.5 0.0
25/11:30am 16.8 14.6 9.5 62 3.8 ENE 11 17 6 9 1008.4 1008.4 0.0
25/11:00am 17.0 15.3 11.1 68 3.2 ENE 11 17 6 9 1008.3 1008.3 0.0
25/10:30am 16.1 14.3 9.3 64 3.5 E 9 15 5 8 1008.3 1008.3 0.0
25/10:00am 15.4 12.8 9.5 68 3.1 SE 13 17 7 9 1008.2 1008.2 0.0
25/09:30am 14.9 12.3 9.3 69 2.9 SSE 13 17 7 9 1008.0 1008.0 0.0
25/09:00am 13.2 12.3 9.3 77 2.0 WSW 4 7 2 4 1007.9 1007.9 5.8
25/08:30am 12.5 12.1 9.7 83 1.4 W 2 9 1 5 1007.7 1007.7 5.8
25/08:00am 11.4 9.0 8.6 83 1.4 SW 11 15 6 8 1007.5 1007.5 5.8
25/07:30am 11.7 10.1 8.9 83 1.4 SSW 7 13 4 7 1007.0 1007.0 5.8
25/07:00am 11.9 10.0 8.9 82 1.5 SSW 9 11 5 6 1006.5 1006.5 5.8
25/06:30am 11.8 10.3 9.2 84 1.3 SSW 7 15 4 8 1006.2 1006.2 5.8
25/06:00am 11.9 9.3 9.5 85 1.2 S 13 20 7 11 1005.6 1005.6 5.8
25/05:30am 10.8 9.6 9.7 93 0.6 WSW 6 9 3 5 1005.3 1005.3 5.8
25/05:00am 11.3 9.6 9.9 91 0.7 SSW 9 13 5 7 1005.1 1005.1 5.8
25/04:30am 11.4 10.4 10.3 93 0.6 WNW 6 7 3 4 1005.0 1005.0 5.8
25/04:00am 11.4 9.8 10.3 93 0.6 SSW 9 13 5 7 1004.7 1004.7 5.8
25/03:30am 11.4 9.9 10.5 94 0.5 SSW 9 13 5 7 1004.6 1004.6 5.8
25/03:00am 10.3 9.0 10.1 99 0.1 WSW 7 13 4 7 1004.6 1004.6 5.8
25/02:30am 10.2 10.3 10.0 99 0.1 CALM 0 7 0 4 1004.6 1004.6 5.8
25/02:00am 10.1 8.0 9.9 99 0.1 SW 11 17 6 9 1004.4 1004.4 5.8
25/01:30am 11.3 9.5 10.8 97 0.3 SSW 11 15 6 8 1004.3 1004.3 5.8
25/01:00am 10.7 9.2 10.5 99 0.1 WSW 9 11 5 6 1004.1 1004.1 5.8
25/12:30am 10.6 8.3 10.6 100 0.0 W 13 15 7 8 1004.2 1004.2 5.8
25/12:00am 11.3 9.2 11.3 100 0.0 W 13 15 7 8 1004.1 1004.1 5.8

Other Formats:

Comma delimited format used in spreadsheet applications
http://www.bom.gov.au/fwo/IDT60801/IDT60801.95957.axf

JavaScript Object Notation format (JSON) in row-major order
http://www.bom.gov.au/fwo/IDT60801/IDT60801.95957.json